KJYL

Details ICAO KJYL (JYL)
Name PLANTATION AIRPARK
Region United States
Timezone America/New_York (UTC-4.0)
Plans Departing 2
Arriving 3
Stats Elevation 188 ft / 57 m (AMSL)
Location 32.645353° -81.597365°
Runways 3
Magnetic Variation 6.882° W
Sunrise 2018-05-21 10:25:30 UTC / 2018-05-21 06:25:30 Local
Sunset 2018-05-22 00:23:21 UTC / 2018-05-21 20:23:21 Local
Advertisement - Login to hide

Runways

ID Width Length Bearing (true) Bearing (mag) Surface Threshold Offset Overrun Length
05 100 ft / 30 m 5,002 ft / 1,524 m 47.33° 54.21° Asphalt 0 ft / 0 m 0 ft / 0 m
10 150 ft / 46 m 4,128 ft / 1,258 m 94.08° 100.96° Asphalt 0 ft / 0 m 0 ft / 0 m
15 75 ft / 23 m 3,792 ft / 1,156 m 145.58° 152.46° Asphalt 0 ft / 0 m 375 ft / 114 m
23 100 ft / 30 m 5,002 ft / 1,524 m 227.34° 234.22° Asphalt 0 ft / 0 m 0 ft / 0 m
28 150 ft / 46 m 4,128 ft / 1,258 m 274.08° 280.96° Asphalt 0 ft / 0 m 0 ft / 0 m
33 75 ft / 23 m 3,792 ft / 1,156 m 325.59° 332.47° Asphalt 0 ft / 0 m 1,125 ft / 343 m

Map

Weather


0- 5 10 15 20 25 30 35+ Temperature / ° C

Clouds and Precipitation
Forecast for 2018-05-21 18:00 UTC. Updated 9 minutes ago

Ground ~20,000 ft ~40,000 ft Winds

METAR

KJYL 211715Z AUTO 17003KT 5SM HZ SCT030 SCT039 29/21 A3016 RMK AO2 T02920211

TAF

Not found

Frequencies

Recorded 118.87 MHz AWOS 3
Unicom 122.80 MHz CTAF/UNICOM
Warning: Do not use this data for real-world aviation or navigation. No guarantee of current accuracy is given.